Time,TemperatureF,DewpointF,PressureIn,WindDirection,WindDirectionDegrees,WindSpeedMPH,WindSpeedGustMPH,Humidity,HourlyPrecipIn,Conditions,Clouds,dailyrainin,SoftwareType,DateUTC
2013-06-10 00:05:00,60.2,57.3,29.77,East,93,0.0,0.0,90,0.00,,,0.00,Wunderground v.1.15,2013-06-10 05:05:00,
2013-06-10 00:10:00,60.1,57.2,29.77,East,93,0.0,0.0,90,0.00,,,0.00,Wunderground v.1.15,2013-06-10 05:10:00,
2013-06-10 00:20:00,59.8,57.2,29.77,East,93,0.0,0.0,91,0.00,,,0.00,Wunderground v.1.15,2013-06-10 05:20:00,
2013-06-10 00:30:00,59.5,56.9,29.77,East,93,0.0,0.0,91,0.00,,,0.00,Wunderground v.1.15,2013-06-10 05:30:00,
2013-06-10 00:35:00,59.3,56.7,29.77,East,93,0.0,0.0,91,0.00,,,0.00,Wunderground v.1.15,2013-06-10 05:35:00,
2013-06-10 00:45:00,59.5,56.9,29.77,East,93,0.0,0.0,91,0.00,,,0.00,Wunderground v.1.15,2013-06-10 05:45:00,
2013-06-10 00:55:00,59.5,56.9,29.76,East,93,0.0,0.0,91,0.00,,,0.00,Wunderground v.1.15,2013-06-10 05:55:00,
2013-06-10 01:05:00,59.2,56.6,29.76,East,93,0.0,0.0,91,0.00,,,0.00,Wunderground v.1.15,2013-06-10 06:05:00,
2013-06-10 01:15:00,59.0,56.4,29.76,East,93,0.0,0.0,91,0.00,,,0.00,Wunderground v.1.15,2013-06-10 06:15:00,
2013-06-10 01:20:00,59.0,56.4,29.75,East,93,0.0,0.0,91,0.00,,,0.00,Wunderground v.1.15,2013-06-10 06:20:00,
2013-06-10 01:30:00,59.0,56.7,29.75,East,93,0.0,0.0,92,0.00,,,0.00,Wunderground v.1.15,2013-06-10 06:30:00,
2013-06-10 01:40:00,59.0,56.7,29.75,East,93,0.0,0.0,92,0.00,,,0.00,Wunderground v.1.15,2013-06-10 06:40:00,
2013-06-10 01:50:00,59.2,56.9,29.75,East,93,0.0,0.0,92,0.00,,,0.00,Wunderground v.1.15,2013-06-10 06:50:00,
2013-06-10 02:00:00,59.3,57.0,29.75,East,93,0.0,0.0,92,0.00,,,0.00,Wunderground v.1.15,2013-06-10 07:00:00,
2013-06-10 02:10:00,59.5,57.2,29.75,East,93,0.0,0.0,92,0.00,,,0.00,Wunderground v.1.15,2013-06-10 07:10:00,
2013-06-10 02:19:00,59.9,57.6,29.74,East,93,0.0,0.0,92,0.00,,,0.00,Wunderground v.1.15,2013-06-10 07:19:00,
2013-06-10 02:25:00,60.1,57.8,29.74,East,93,0.0,0.0,92,0.00,,,0.00,Wunderground v.1.15,2013-06-10 07:25:00,
2013-06-10 02:35:00,59.9,57.3,29.73,East,93,0.0,0.0,91,0.00,,,0.00,Wunderground v.1.15,2013-06-10 07:35:00,
2013-06-10 02:45:00,59.6,57.0,29.73,East,93,0.0,0.0,91,0.00,,,0.00,Wunderground v.1.15,2013-06-10 07:45:00,
2013-06-10 02:55:00,59.6,57.3,29.73,East,93,0.0,0.0,92,0.00,,,0.00,Wunderground v.1.15,2013-06-10 07:55:00,
2013-06-10 03:05:00,59.5,56.9,29.73,East,93,0.0,0.0,91,0.00,,,0.00,Wunderground v.1.15,2013-06-10 08:05:00,
2013-06-10 03:14:00,59.3,56.7,29.73,East,93,0.0,0.0,91,0.00,,,0.00,Wunderground v.1.15,2013-06-10 08:14:00,
2013-06-10 03:20:00,59.0,56.4,29.72,East,93,0.0,0.0,91,0.00,,,0.00,Wunderground v.1.15,2013-06-10 08:20:00,
2013-06-10 03:30:00,58.7,56.1,29.72,East,93,0.0,0.0,91,0.00,,,0.00,Wunderground v.1.15,2013-06-10 08:30:00,
2013-06-10 03:40:00,58.6,56.0,29.72,East,93,0.0,0.0,91,0.00,,,0.00,Wunderground v.1.15,2013-06-10 08:40:00,
2013-06-10 03:50:00,59.3,56.7,29.73,East,93,0.0,0.0,91,0.00,,,0.00,Wunderground v.1.15,2013-06-10 08:50:00,
2013-06-10 04:00:00,60.1,57.5,29.73,East,93,0.0,0.0,91,0.00,,,0.00,Wunderground v.1.15,2013-06-10 09:00:00,
2013-06-10 04:05:00,59.9,57.0,29.73,East,93,0.0,0.0,90,0.00,,,0.00,Wunderground v.1.15,2013-06-10 09:05:00,
2013-06-10 04:10:00,59.3,56.4,29.73,East,93,0.0,0.0,90,0.00,,,0.00,Wunderground v.1.15,2013-06-10 09:10:00,
2013-06-10 04:20:00,58.6,55.7,29.74,East,93,0.0,0.0,90,0.00,,,0.00,Wunderground v.1.15,2013-06-10 09:20:00,
2013-06-10 04:30:00,58.1,55.2,29.74,East,93,0.0,0.0,90,0.00,,,0.00,Wunderground v.1.15,2013-06-10 09:30:00,
2013-06-10 04:40:00,58.0,55.4,29.74,East,93,0.0,0.0,91,0.00,,,0.00,Wunderground v.1.15,2013-06-10 09:40:00,
2013-06-10 04:50:00,59.0,56.4,29.74,East,93,0.0,0.0,91,0.00,,,0.00,Wunderground v.1.15,2013-06-10 09:50:00,
2013-06-10 04:55:00,59.3,56.4,29.74,East,93,0.0,0.0,90,0.00,,,0.00,Wunderground v.1.15,2013-06-10 09:55:00,
2013-06-10 05:05:00,59.2,56.3,29.74,East,93,0.0,1.0,90,0.00,,,0.00,Wunderground v.1.15,2013-06-10 10:05:00,
2013-06-10 05:15:00,58.7,55.8,29.74,East,93,0.0,0.0,90,0.00,,,0.00,Wunderground v.1.15,2013-06-10 10:15:00,
2013-06-10 05:25:00,58.7,55.8,29.74,SSW,194,0.0,0.0,90,0.00,,,0.00,Wunderground v.1.15,2013-06-10 10:25:00,
2013-06-10 05:35:00,60.5,57.9,29.74,WSW,250,0.0,0.0,91,0.00,,,0.00,Wunderground v.1.15,2013-06-10 10:35:00,
2013-06-10 05:45:00,62.1,58.8,29.74,WSW,248,0.0,3.0,89,0.00,,,0.00,Wunderground v.1.15,2013-06-10 10:45:00,
2013-06-10 05:50:00,62.6,59.0,29.75,WSW,250,1.0,1.0,88,0.00,,,0.00,Wunderground v.1.15,2013-06-10 10:50:00,
2013-06-10 06:00:00,63.4,58.8,29.75,WSW,257,1.0,1.0,85,0.00,,,0.00,Wunderground v.1.15,2013-06-10 11:00:00,
2013-06-10 06:05:00,63.7,58.8,29.75,SSW,206,1.0,1.0,84,0.00,,,0.00,Wunderground v.1.15,2013-06-10 11:05:00,
2013-06-10 06:10:00,63.7,58.8,29.75,SSW,206,0.0,0.0,84,0.00,,,0.00,Wunderground v.1.15,2013-06-10 11:10:00,
2013-06-10 06:20:00,63.1,58.2,29.76,SSW,206,0.0,0.0,84,0.00,,,0.00,Wunderground v.1.15,2013-06-10 11:20:00,
2013-06-10 06:25:00,62.6,57.7,29.76,SSW,206,0.0,0.0,84,0.00,,,0.00,Wunderground v.1.15,2013-06-10 11:25:00,
2013-06-10 06:35:00,62.1,57.5,29.77,SSW,206,0.0,0.0,85,0.00,,,0.00,Wunderground v.1.15,2013-06-10 11:35:00,
2013-06-10 06:45:00,61.5,57.3,29.77,SSW,206,0.0,0.0,86,0.00,,,0.00,Wunderground v.1.15,2013-06-10 11:45:00,
2013-06-10 06:54:00,62.0,58.4,29.77,SSW,206,0.0,0.0,88,0.00,,,0.00,Wunderground v.1.15,2013-06-10 11:54:00,
2013-06-10 07:00:00,62.4,58.5,29.77,SSW,206,0.0,0.0,87,0.00,,,0.00,Wunderground v.1.15,2013-06-10 12:00:00,
2013-06-10 07:05:00,62.9,59.0,29.78,SSW,206,0.0,0.0,87,0.00,,,0.00,Wunderground v.1.15,2013-06-10 12:05:00,
2013-06-10 07:10:00,63.4,59.1,29.78,SSW,206,0.0,0.0,86,0.00,,,0.00,Wunderground v.1.15,2013-06-10 12:10:00,
2013-06-10 07:20:00,64.3,59.4,29.78,WNW,286,0.0,0.0,84,0.00,,,0.00,Wunderground v.1.15,2013-06-10 12:20:00,
2013-06-10 07:30:00,65.3,59.7,29.78,WNW,287,0.0,0.0,82,0.00,,,0.00,Wunderground v.1.15,2013-06-10 12:30:00,
2013-06-10 07:40:00,66.6,59.9,29.79,West,261,0.0,0.0,79,0.00,,,0.00,Wunderground v.1.15,2013-06-10 12:40:00,
2013-06-10 07:50:00,67.8,60.3,29.78,SW,221,0.0,3.0,77,0.00,,,0.00,Wunderground v.1.15,2013-06-10 12:50:00,
2013-06-10 08:00:00,68.4,60.2,29.78,West,269,1.0,1.0,75,0.00,,,0.00,Wunderground v.1.15,2013-06-10 13:00:00,
2013-06-10 08:05:00,68.9,61.0,29.78,West,269,1.0,1.0,76,0.00,,,0.00,Wunderground v.1.15,2013-06-10 13:05:00,
2013-06-10 08:15:00,70.3,61.6,29.78,North,355,0.0,1.0,74,0.00,,,0.00,Wunderground v.1.15,2013-06-10 13:15:00,
2013-06-10 08:25:00,70.9,61.8,29.79,NNE,28,1.0,2.0,73,0.00,,,0.00,Wunderground v.1.15,2013-06-10 13:25:00,
2013-06-10 08:35:00,71.5,62.0,29.79,NW,316,1.0,1.0,72,0.00,,,0.00,Wunderground v.1.15,2013-06-10 13:35:00,
2013-06-10 08:40:00,71.5,61.2,29.79,NE,47,1.0,1.0,70,0.00,,,0.00,Wunderground v.1.15,2013-06-10 13:40:00,
2013-06-10 08:50:00,72.5,62.2,29.80,NW,313,1.0,1.0,70,0.00,,,0.00,Wunderground v.1.15,2013-06-10 13:50:00,
2013-06-10 08:55:00,73.0,62.6,29.80,NW,313,0.0,1.0,70,0.00,,,0.00,Wunderground v.1.15,2013-06-10 13:55:00,
2013-06-10 09:05:00,74.0,62.3,29.80,West,266,0.0,0.0,67,0.00,,,0.00,Wunderground v.1.15,2013-06-10 14:05:00,
2013-06-10 09:10:00,74.0,61.0,29.80,West,271,0.0,0.0,64,0.00,,,0.00,Wunderground v.1.15,2013-06-10 14:10:00,
2013-06-10 09:20:00,74.6,61.6,29.80,WNW,300,0.0,0.0,64,0.00,,,0.00,Wunderground v.1.15,2013-06-10 14:20:00,
2013-06-10 09:29:00,75.1,63.0,29.80,NNW,348,0.0,0.0,66,0.00,,,0.00,Wunderground v.1.15,2013-06-10 14:29:00,
2013-06-10 09:35:00,75.4,61.9,29.80,NNW,343,0.0,0.0,63,0.00,,,0.00,Wunderground v.1.15,2013-06-10 14:35:00,
2013-06-10 09:45:00,75.8,62.3,29.80,NNW,338,0.0,2.0,63,0.00,,,0.00,Wunderground v.1.15,2013-06-10 14:45:00,
2013-06-10 09:55:00,76.0,61.6,29.80,NW,315,1.0,1.0,61,0.00,,,0.00,Wunderground v.1.15,2013-06-10 14:55:00,
2013-06-10 10:05:00,77.2,62.2,29.80,West,281,1.0,1.0,60,0.00,,,0.00,Wunderground v.1.15,2013-06-10 15:05:00,
2013-06-10 10:10:00,77.2,60.8,29.80,NW,309,1.0,1.0,57,0.00,,,0.00,Wunderground v.1.15,2013-06-10 15:10:00,
2013-06-10 10:20:00,77.7,61.3,29.80,NW,319,1.0,1.0,57,0.00,,,0.00,Wunderground v.1.15,2013-06-10 15:20:00,
2013-06-10 10:30:00,78.3,62.8,29.80,NW,323,0.0,1.0,59,0.00,,,0.00,Wunderground v.1.15,2013-06-10 15:30:00,
2013-06-10 10:39:00,78.8,62.8,29.80,WNW,293,1.0,1.0,58,0.00,,,0.00,Wunderground v.1.15,2013-06-10 15:39:00,
2013-06-10 10:45:00,78.8,61.8,29.80,WNW,285,1.0,4.0,56,0.00,,,0.00,Wunderground v.1.15,2013-06-10 15:45:00,
2013-06-10 10:55:00,79.4,63.3,29.80,SW,219,1.0,1.0,58,0.00,,,0.00,Wunderground v.1.15,2013-06-10 15:55:00,
2013-06-10 11:05:00,79.6,64.5,29.80,WSW,244,2.0,2.0,60,0.00,,,0.00,Wunderground v.1.15,2013-06-10 16:05:00,
2013-06-10 11:15:00,79.9,60.7,29.80,NNW,329,2.0,4.0,52,0.00,,,0.00,Wunderground v.1.15,2013-06-10 16:15:00,
2013-06-10 11:25:00,80.3,62.7,29.80,SSW,200,2.0,4.0,55,0.00,,,0.00,Wunderground v.1.15,2013-06-10 16:25:00,
2013-06-10 11:35:00,80.9,63.2,29.80,West,267,1.0,3.0,55,0.00,,,0.00,Wunderground v.1.15,2013-06-10 16:35:00,
2013-06-10 11:40:00,81.1,62.9,29.80,WSW,253,1.0,1.0,54,0.00,,,0.00,Wunderground v.1.15,2013-06-10 16:40:00,
2013-06-10 11:49:00,81.6,63.3,29.79,SW,223,2.0,4.0,54,0.00,,,0.00,Wunderground v.1.15,2013-06-10 16:49:00,
2013-06-10 11:55:00,81.8,61.9,29.79,South,188,3.0,4.0,51,0.00,,,0.00,Wunderground v.1.15,2013-06-10 16:55:00,
2013-06-10 12:05:00,81.6,63.3,29.79,South,188,4.0,7.0,54,0.00,,,0.00,Wunderground v.1.15,2013-06-10 17:05:00,
2013-06-10 12:15:00,82.4,63.5,29.79,WSW,250,2.0,5.0,53,0.00,,,0.00,Wunderground v.1.15,2013-06-10 17:15:00,
2013-06-10 12:25:00,82.8,63.4,29.80,South,173,3.0,3.0,52,0.00,,,0.00,Wunderground v.1.15,2013-06-10 17:25:00,
2013-06-10 12:30:00,82.8,63.9,29.80,South,189,3.0,3.0,53,0.00,,,0.00,Wunderground v.1.15,2013-06-10 17:30:00,
2013-06-10 12:40:00,83.2,64.8,29.79,South,169,3.0,3.0,54,0.00,,,0.00,Wunderground v.1.15,2013-06-10 17:40:00,
2013-06-10 12:50:00,83.8,64.3,29.79,WSW,252,1.0,1.0,52,0.00,,,0.00,Wunderground v.1.15,2013-06-10 17:50:00,
2013-06-10 13:00:00,84.3,65.8,29.79,South,185,1.0,1.0,54,0.00,,,0.00,Wunderground v.1.15,2013-06-10 18:00:00,
2013-06-10 13:05:00,84.5,66.6,29.78,SSW,206,1.0,2.0,55,0.00,,,0.00,Wunderground v.1.15,2013-06-10 18:05:00,
2013-06-10 13:10:00,84.3,66.4,29.78,NW,309,2.0,4.0,55,0.00,,,0.00,Wunderground v.1.15,2013-06-10 18:10:00,
2013-06-10 13:19:00,84.7,66.2,29.78,West,270,2.0,2.0,54,0.00,,,0.00,Wunderground v.1.15,2013-06-10 18:19:00,
2013-06-10 13:25:00,84.9,66.9,29.78,WNW,287,2.0,3.0,55,0.00,,,0.00,Wunderground v.1.15,2013-06-10 18:25:00,
2013-06-10 13:35:00,84.9,66.4,29.78,NNW,346,2.0,2.0,54,0.00,,,0.00,Wunderground v.1.15,2013-06-10 18:35:00,
2013-06-10 13:45:00,85.1,68.2,29.78,NNW,336,2.0,6.0,57,0.00,,,0.00,Wunderground v.1.15,2013-06-10 18:45:00,
2013-06-10 13:55:00,85.7,68.2,29.77,WNW,290,1.0,4.0,56,0.00,,,0.00,Wunderground v.1.15,2013-06-10 18:55:00,
2013-06-10 14:05:00,86.1,71.1,29.77,SW,224,1.0,3.0,61,0.00,,,0.00,Wunderground v.1.15,2013-06-10 19:05:00,
2013-06-10 14:15:00,86.3,69.3,29.77,NNE,23,2.0,6.0,57,0.00,,,0.00,Wunderground v.1.15,2013-06-10 19:15:00,
2013-06-10 14:25:00,86.1,69.6,29.76,NW,309,1.0,3.0,58,0.00,,,0.00,Wunderground v.1.15,2013-06-10 19:25:00,
2013-06-10 14:30:00,86.3,68.2,29.76,WNW,287,2.0,2.0,55,0.00,,,0.00,Wunderground v.1.15,2013-06-10 19:30:00,
2013-06-10 14:40:00,86.5,68.4,29.76,WSW,248,1.0,5.0,55,0.00,,,0.00,Wunderground v.1.15,2013-06-10 19:40:00,
2013-06-10 14:45:00,86.7,69.6,29.76,NNW,343,2.0,5.0,57,0.00,,,0.00,Wunderground v.1.15,2013-06-10 19:45:00,
2013-06-10 14:55:00,87.4,70.3,29.76,SW,223,1.0,1.0,57,0.00,,,0.00,Wunderground v.1.15,2013-06-10 19:55:00,
2013-06-10 15:05:00,87.4,69.3,29.75,West,267,1.0,3.0,55,0.00,,,0.00,Wunderground v.1.15,2013-06-10 20:05:00,
2013-06-10 15:15:00,87.8,69.6,29.75,NNE,19,1.0,1.0,55,0.00,,,0.00,Wunderground v.1.15,2013-06-10 20:15:00,
2013-06-10 15:25:00,87.4,70.3,29.76,SSE,168,2.0,2.0,57,0.00,,,0.00,Wunderground v.1.15,2013-06-10 20:25:00,
2013-06-10 15:30:00,87.6,69.4,29.76,NW,313,1.0,1.0,55,0.00,,,0.00,Wunderground v.1.15,2013-06-10 20:30:00,
2013-06-10 15:40:00,88.0,68.7,29.75,North,350,2.0,2.0,53,0.00,,,0.00,Wunderground v.1.15,2013-06-10 20:40:00,
2013-06-10 15:50:00,87.6,69.4,29.75,NNW,338,1.0,1.0,55,0.00,,,0.00,Wunderground v.1.15,2013-06-10 20:50:00,
2013-06-10 16:00:00,88.0,68.7,29.75,WNW,284,1.0,1.0,53,0.00,,,0.00,Wunderground v.1.15,2013-06-10 21:00:00,
2013-06-10 16:05:00,88.4,69.1,29.75,WNW,293,1.0,1.0,53,0.00,,,0.00,Wunderground v.1.15,2013-06-10 21:05:00,
2013-06-10 16:15:00,88.6,69.3,29.75,SW,215,1.0,1.0,53,0.00,,,0.00,Wunderground v.1.15,2013-06-10 21:15:00,
2013-06-10 16:25:00,87.8,71.2,29.75,West,262,1.0,2.0,58,0.00,,,0.00,Wunderground v.1.15,2013-06-10 21:25:00,
2013-06-10 16:35:00,88.2,70.0,29.75,SSW,200,1.0,3.0,55,0.00,,,0.00,Wunderground v.1.15,2013-06-10 21:35:00,
2013-06-10 16:40:00,88.6,69.3,29.75,WSW,256,1.0,5.0,53,0.00,,,0.00,Wunderground v.1.15,2013-06-10 21:40:00,
2013-06-10 16:50:00,88.6,69.8,29.75,WSW,246,2.0,2.0,54,0.00,,,0.00,Wunderground v.1.15,2013-06-10 21:50:00,
2013-06-10 16:59:00,89.0,70.7,29.75,SW,231,1.0,1.0,55,0.00,,,0.00,Wunderground v.1.15,2013-06-10 21:59:00,
2013-06-10 17:05:00,89.0,69.1,29.75,WNW,293,1.0,1.0,52,0.00,,,0.00,Wunderground v.1.15,2013-06-10 22:05:00,
2013-06-10 17:15:00,88.6,68.7,29.75,SW,229,1.0,6.0,52,0.00,,,0.00,Wunderground v.1.15,2013-06-10 22:15:00,
2013-06-10 17:25:00,88.6,69.3,29.74,NW,321,0.0,1.0,53,0.00,,,0.00,Wunderground v.1.15,2013-06-10 22:25:00,
2013-06-10 17:35:00,89.0,69.6,29.74,SW,220,1.0,2.0,53,0.00,,,0.00,Wunderground v.1.15,2013-06-10 22:35:00,
2013-06-10 17:45:00,88.8,68.3,29.74,NNW,336,1.0,4.0,51,0.00,,,0.00,Wunderground v.1.15,2013-06-10 22:45:00,
2013-06-10 17:54:00,88.6,69.3,29.74,West,277,1.0,1.0,53,0.00,,,0.00,Wunderground v.1.15,2013-06-10 22:54:00,
2013-06-10 18:00:00,88.8,69.5,29.74,WNW,284,0.0,0.0,53,0.00,,,0.00,Wunderground v.1.15,2013-06-10 23:00:00,
2013-06-10 18:05:00,88.6,69.3,29.74,WNW,292,0.0,0.0,53,0.00,,,0.00,Wunderground v.1.15,2013-06-10 23:05:00,
2013-06-10 18:10:00,88.6,69.3,29.74,WNW,292,0.0,0.0,53,0.00,,,0.00,Wunderground v.1.15,2013-06-10 23:10:00,
2013-06-10 18:20:00,88.4,69.1,29.74,West,267,0.0,0.0,53,0.00,,,0.00,Wunderground v.1.15,2013-06-10 23:20:00,
2013-06-10 18:30:00,88.4,69.6,29.74,NW,311,0.0,0.0,54,0.00,,,0.00,Wunderground v.1.15,2013-06-10 23:30:00,
2013-06-10 18:40:00,87.6,68.4,29.74,NW,311,0.0,0.0,53,0.00,,,0.00,Wunderground v.1.15,2013-06-10 23:40:00,
2013-06-10 18:50:00,87.0,69.4,29.74,NW,311,0.0,0.0,56,0.00,,,0.00,Wunderground v.1.15,2013-06-10 23:50:00,
2013-06-10 18:59:00,86.5,70.0,29.74,NW,310,0.0,0.0,58,0.00,,,0.00,Wunderground v.1.15,2013-06-10 23:59:00,
2013-06-10 19:05:00,86.3,69.8,29.75,NW,310,0.0,0.0,58,0.00,,,0.00,Wunderground v.1.15,2013-06-11 00:05:00,
2013-06-10 19:15:00,85.9,69.4,29.75,WSW,257,1.0,1.0,58,0.00,,,0.00,Wunderground v.1.15,2013-06-11 00:15:00,
2013-06-10 19:25:00,85.9,69.9,29.74,WSW,257,0.0,0.0,59,0.00,,,0.00,Wunderground v.1.15,2013-06-11 00:25:00,
2013-06-10 19:35:00,85.5,71.0,29.75,WSW,257,0.0,0.0,62,0.00,,,0.00,Wunderground v.1.15,2013-06-11 00:35:00,
2013-06-10 19:45:00,84.9,71.4,29.75,WSW,257,0.0,0.0,64,0.00,,,0.00,Wunderground v.1.15,2013-06-11 00:45:00,
2013-06-10 19:54:00,84.5,71.0,29.75,WSW,257,0.0,0.0,64,0.00,,,0.00,Wunderground v.1.15,2013-06-11 00:54:00,
2013-06-10 20:00:00,84.3,70.8,29.75,WSW,257,0.0,0.0,64,0.00,,,0.00,Wunderground v.1.15,2013-06-11 01:00:00,
2013-06-10 20:05:00,84.1,70.6,29.75,WSW,257,0.0,0.0,64,0.00,,,0.00,Wunderground v.1.15,2013-06-11 01:05:00,
2013-06-10 20:14:00,84.0,70.5,29.75,WSW,257,0.0,0.0,64,0.00,,,0.00,Wunderground v.1.15,2013-06-11 01:14:00,
2013-06-10 20:20:00,83.8,70.8,29.75,WSW,257,0.0,0.0,65,0.00,,,0.00,Wunderground v.1.15,2013-06-11 01:20:00,
2013-06-10 20:30:00,83.2,70.2,29.75,WSW,257,0.0,0.0,65,0.00,,,0.00,Wunderground v.1.15,2013-06-11 01:30:00,
2013-06-10 20:40:00,82.6,70.1,29.75,WSW,257,0.0,0.0,66,0.00,,,0.00,Wunderground v.1.15,2013-06-11 01:40:00,
2013-06-10 20:50:00,81.6,70.4,29.75,WSW,257,0.0,0.0,69,0.00,,,0.00,Wunderground v.1.15,2013-06-11 01:50:00,
2013-06-10 20:55:00,81.1,70.4,29.75,WSW,257,0.0,0.0,70,0.00,,,0.00,Wunderground v.1.15,2013-06-11 01:55:00,
2013-06-10 21:05:00,79.4,70.8,29.75,WSW,257,0.0,0.0,75,0.00,,,0.00,Wunderground v.1.15,2013-06-11 02:05:00,
2013-06-10 21:14:00,78.3,70.5,29.75,WSW,257,0.0,0.0,77,0.00,,,0.00,Wunderground v.1.15,2013-06-11 02:14:00,
2013-06-10 21:20:00,77.7,70.3,29.75,WSW,257,0.0,0.0,78,0.00,,,0.00,Wunderground v.1.15,2013-06-11 02:20:00,
2013-06-10 21:30:00,76.8,70.2,29.75,WSW,257,0.0,0.0,80,0.00,,,0.00,Wunderground v.1.15,2013-06-11 02:30:00,
2013-06-10 21:40:00,76.1,69.8,29.76,WSW,257,0.0,0.0,81,0.00,,,0.00,Wunderground v.1.15,2013-06-11 02:40:00,
2013-06-10 21:49:00,75.4,69.9,29.77,WSW,257,0.0,0.0,83,0.00,,,0.00,Wunderground v.1.15,2013-06-11 02:49:00,
2013-06-10 21:55:00,75.1,69.9,29.77,WSW,257,0.0,0.0,84,0.00,,,0.00,Wunderground v.1.15,2013-06-11 02:55:00,
2013-06-10 22:05:00,75.1,70.3,29.77,WSW,257,0.0,0.0,85,0.00,,,0.00,Wunderground v.1.15,2013-06-11 03:05:00,
2013-06-10 22:15:00,74.6,69.4,29.77,WSW,257,0.0,0.0,84,0.00,,,0.00,Wunderground v.1.15,2013-06-11 03:15:00,
2013-06-10 22:25:00,74.0,69.2,29.78,WSW,257,0.0,0.0,85,0.00,,,0.00,Wunderground v.1.15,2013-06-11 03:25:00,
2013-06-10 22:34:00,73.5,69.1,29.78,WSW,257,0.0,0.0,86,0.00,,,0.00,Wunderground v.1.15,2013-06-11 03:34:00,
2013-06-10 22:40:00,73.2,68.8,29.78,WSW,257,0.0,0.0,86,0.00,,,0.00,Wunderground v.1.15,2013-06-11 03:40:00,
2013-06-10 22:50:00,72.8,68.7,29.79,WSW,257,0.0,0.0,87,0.00,,,0.00,Wunderground v.1.15,2013-06-11 03:50:00,
2013-06-10 22:59:00,72.3,68.2,29.79,WSW,257,0.0,0.0,87,0.00,,,0.00,Wunderground v.1.15,2013-06-11 03:59:00,
2013-06-10 23:05:00,72.1,68.0,29.79,WSW,257,0.0,0.0,87,0.00,,,0.00,Wunderground v.1.15,2013-06-11 04:05:00,
2013-06-10 23:10:00,71.8,67.7,29.79,WSW,257,0.0,0.0,87,0.00,,,0.00,Wunderground v.1.15,2013-06-11 04:10:00,
2013-06-10 23:15:00,71.6,67.9,29.79,WSW,257,0.0,0.0,88,0.00,,,0.00,Wunderground v.1.15,2013-06-11 04:15:00,
2013-06-10 23:19:00,71.5,67.8,29.79,WSW,257,0.0,0.0,88,0.00,,,0.00,Wunderground v.1.15,2013-06-11 04:19:00,
2013-06-10 23:25:00,71.3,67.6,29.79,WSW,257,0.0,0.0,88,0.00,,,0.00,Wunderground v.1.15,2013-06-11 04:25:00,
2013-06-10 23:35:00,71.1,67.7,29.80,WSW,257,0.0,0.0,89,0.00,,,0.00,Wunderground v.1.15,2013-06-11 04:35:00,
2013-06-10 23:40:00,71.1,67.7,29.80,WSW,257,0.0,0.0,89,0.00,,,0.00,Wunderground v.1.15,2013-06-11 04:40:00,
2013-06-10 23:49:00,70.6,67.2,29.79,WSW,257,0.0,0.0,89,0.00,,,0.00,Wunderground v.1.15,2013-06-11 04:49:00,
2013-06-10 23:55:00,70.6,67.2,29.79,WSW,257,0.0,0.0,89,0.00,,,0.00,Wunderground v.1.15,2013-06-11 04:55:00,
2013-06-10 23:59:00,70.4,67.3,29.79,WSW,257,0.0,0.0,90,0.00,,,0.00,Wunderground v.1.15,2013-06-11 04:59:00,